Terminal Aerodrome Forecast
Issued by NWS

Home | Current Version | Previous Version | Text Only | Print | Product List | Glossary On
Versions: 1 2 3 4 5 6 7 8 9 10 11 12 13 14 15 16 17
000
FTUS46 KSGX 211121
TAFONT
TAF
KONT 211121Z 2112/2218 27005KT P6SM OVC025
     FM211900 25011G18KT P6SM SCT030 SCT080
     FM220500 26007KT P6SM BKN030
     FM220800 25005KT P6SM OVC025
     FM221500 VRB04KT P6SM BKN035=

USA.gov is the U.S. government's official web portal to all federal, state and local government web resources and services.